Flag for USA

Past Weather in Waipahu, Hawaii, USA — Yesterday and Last 2 Weeks

Currently: 65 °F. Drizzle. More clouds than sun. (Weather station: Wheeler Air Force Base / Oahu, USA). See more current weather

Past Weather in Waipahu — Graph

°F

Waipahu Temperature Yesterday

Maximum temperature yesterday: 77 °F (at 2:56 pm)
Minimum temperature yesterday: 62 °F (at 6:56 am)
Average temperature yesterday: 68 °F

High & Low Weather Summary for the Past Weeks

 TemperatureHumidityPressure
High82 °F (Jan 15, 2:56 pm)100% (Jan 4, 12:33 am)30.17 "Hg (Jan 4, 12:33 am)
Low62 °F (Jan 17, 6:56 am)51% (Jan 14, 1:56 pm)29.90 "Hg (Jan 13, 2:56 pm)
Average70 °F86%30.04 "Hg
* Reported Jan 3 4:01 pm — Jan 18 4:01 pm, Waipahu. Weather by CustomWeather, © 2021

Note: Actual official high and low records may vary slightly from our data, if they occured in-between our weather recording intervals... More about our weather records

Waipahu Weather History for the Previous 24 Hours

Scroll right to see more
 ConditionsComfort  
Time TempWeatherWind HumidityBarometerVisibility
4:01 pm
Mon, Jan 18
64 °FDrizzle. Mostly cloudy.10 mph100%29.98 "Hg8 mi
3:18 pm64 °FLight rain. Fog.12 mph100%30.00 "Hg6 mi
2:58 pm66 °FDrizzle. Cloudy.14 mph94%29.98 "Hg10 mi
1:56 pm65 °FDrizzle. Broken clouds.14 mph99%29.97 "Hg8 mi
12:56 pm66 °FLight rain. Fog.15 mph98%29.98 "Hg5 mi
12:35 pm66 °FDrizzle. Fog.17 mph94%30.00 "Hg6 mi
12:20 pm66 °FDrizzle. Cloudy.20 mph94%30.01 "Hg7 mi
11:58 am66 °FDrizzle. More clouds than sun.15 mph94%30.02 "Hg9 mi
11:27 am66 °FDrizzle. Fog.16 mph100%30.05 "Hg6 mi
10:42 am66 °FDrizzle. Cloudy.14 mph100%30.06 "Hg9 mi
9:56 am65 °FLight rain. Fog.17 mph99%30.04 "Hg6 mi
9:33 am66 °FDrizzle. Cloudy.13 mph94%30.06 "Hg9 mi
9:20 am64 °FCloudy.15 mph100%30.06 "Hg9 mi
8:59 am66 °FDrizzle. Mostly cloudy.15 mph100%30.05 "Hg9 mi
8:35 am66 °FDrizzle. Mostly cloudy.13 mph100%30.01 "Hg8 mi
8:16 am66 °FDrizzle. Fog.15 mph94%30.03 "Hg5 mi
8:10 am66 °FFog.12 mph94%30.01 "Hg5 mi
7:56 am65 °FDrizzle. Fog.12 mph99%30.00 "Hg6 mi
7:06 am66 °FDrizzle. Mostly cloudy.10 mph94%30.01 "Hg8 mi
6:56 am65 °FPartly cloudy.12 mph99%29.99 "Hg9 mi
6:40 am64 °FPartly cloudy.9 mph100%29.99 "Hg10 mi
6:35 am64 °FOvercast.9 mph100%30.01 "Hg10 mi
6:12 am66 °FDrizzle. Mostly cloudy.10 mph94%30.00 "Hg9 mi
5:56 am66 °FPassing clouds.12 mph99%30.00 "Hg8 mi
5:30 am66 °FOvercast.12 mph100%29.98 "Hg10 mi
4:56 am66 °FPartly cloudy.13 mph94%29.97 "Hg10 mi
3:56 am66 °FPassing clouds.9 mph93%29.93 "Hg10 mi
2:56 am66 °FOvercast.12 mph94%29.94 "Hg10 mi
1:56 am67 °FMostly cloudy.9 mph95%29.98 "Hg10 mi
1:41 am66 °FMostly cloudy.8 mph94%29.98 "Hg10 mi
12:56 am66 °FMostly cloudy.9 mph94%29.98 "Hg10 mi
12:13 am66 °FMostly cloudy.6 mph88%30.00 "Hg10 mi
11:59 pm
Sun, Jan 17
66 °FPartly cloudy.10 mph88%30.01 "Hg10 mi
10:56 pm65 °FPartly cloudy.13 mph94%30.02 "Hg10 mi
10:24 pm64 °FPassing clouds.13 mph100%30.02 "Hg10 mi
10:06 pm64 °FDrizzle. Fog.16 mph100%30.02 "Hg5 mi
9:31 pm66 °FHeavy rain. Fog.16 mph100%30.02 "Hg2 mi
9:16 pm66 °FRain. Fog.13 mph100%30.02 "Hg5 mi
8:56 pm66 °FHeavy rain. Fog.24 mph99%30.01 "Hg2 mi
8:21 pm66 °FHeavy rain. Fog.8 mph100%30.04 "Hg6 mi
7:56 pm68 °FHeavy rain. Fog.17 mph98%30.00 "Hg2 mi
7:29 pm72 °FPartly cloudy.12 mph88%29.98 "Hg10 mi
7:13 pm70 °FPartly cloudy.9 mph94%29.99 "Hg10 mi
7:03 pm72 °FMostly cloudy.6 mph88%29.99 "Hg10 mi
6:56 pm71 °FLight rain. Partly cloudy.10 mph87%29.97 "Hg5 mi
6:35 pm72 °FLight rain. Partly cloudy.6 mph83%29.96 "Hg10 mi
6:05 pm73 °FLight rain. Scattered clouds.5 mph78%29.95 "Hg9 mi
5:56 pm73 °FScattered clouds.3 mph77%29.95 "Hg10 mi
Weather by CustomWeather, © 2021

See weather overview